sensor_id;sensor_type;location;lat;lon;timestamp;P1;durP1;ratioP1;P2;durP2;ratioP2
82248;SDS011;71851;49.092;18.918;2023-08-21T00:01:53;12.68;;;10.18;;
82248;SDS011;71851;49.092;18.918;2023-08-21T00:04:54;10.95;;;9.85;;
82248;SDS011;71851;49.092;18.918;2023-08-21T00:07:54;11.70;;;10.50;;
82248;SDS011;71851;49.092;18.918;2023-08-21T00:10:55;12.50;;;10.00;;
82248;SDS011;71851;49.092;18.918;2023-08-21T00:13:55;11.77;;;10.18;;
82248;SDS011;71851;49.092;18.918;2023-08-21T00:16:56;11.68;;;10.35;;
82248;SDS011;71851;49.092;18.918;2023-08-21T00:19:56;12.77;;;10.38;;
82248;SDS011;71851;49.092;18.918;2023-08-21T00:22:57;10.77;;;9.68;;
82248;SDS011;71851;49.092;18.918;2023-08-21T00:25:57;11.90;;;9.48;;
82248;SDS011;71851;49.092;18.918;2023-08-21T00:28:58;15.55;;;10.68;;
82248;SDS011;71851;49.092;18.918;2023-08-21T00:31:59;12.18;;;10.38;;
82248;SDS011;71851;49.092;18.918;2023-08-21T00:35:00;13.70;;;11.15;;
82248;SDS011;71851;49.092;18.918;2023-08-21T00:38:00;13.70;;;10.25;;
82248;SDS011;71851;49.092;18.918;2023-08-21T00:44:02;16.08;;;10.45;;
82248;SDS011;71851;49.092;18.918;2023-08-21T00:47:04;12.50;;;9.80;;
82248;SDS011;71851;49.092;18.918;2023-08-21T00:50:05;11.18;;;9.75;;
82248;SDS011;71851;49.092;18.918;2023-08-21T00:53:07;12.43;;;9.93;;
82248;SDS011;71851;49.092;18.918;2023-08-21T00:56:07;11.65;;;10.35;;
82248;SDS011;71851;49.092;18.918;2023-08-21T00:59:08;14.27;;;9.93;;
82248;SDS011;71851;49.092;18.918;2023-08-21T01:02:09;12.73;;;10.13;;
82248;SDS011;71851;49.092;18.918;2023-08-21T01:05:10;12.35;;;9.57;;
82248;SDS011;71851;49.092;18.918;2023-08-21T01:08:14;11.43;;;10.10;;
82248;SDS011;71851;49.092;18.918;2023-08-21T01:11:38;12.00;;;9.93;;
82248;SDS011;71851;49.092;18.918;2023-08-21T01:14:48;11.80;;;9.73;;
82248;SDS011;71851;49.092;18.918;2023-08-21T01:17:59;12.10;;;10.43;;
82248;SDS011;71851;49.092;18.918;2023-08-21T01:21:02;12.02;;;9.70;;
82248;SDS011;71851;49.092;18.918;2023-08-21T01:24:04;12.35;;;10.27;;
82248;SDS011;71851;49.092;18.918;2023-08-21T01:27:05;13.27;;;11.18;;
82248;SDS011;71851;49.092;18.918;2023-08-21T01:30:06;11.65;;;10.45;;
82248;SDS011;71851;49.092;18.918;2023-08-21T01:33:09;13.98;;;10.45;;
82248;SDS011;71851;49.092;18.918;2023-08-21T01:36:13;13.55;;;11.13;;
82248;SDS011;71851;49.092;18.918;2023-08-21T01:39:15;11.57;;;10.38;;
82248;SDS011;71851;49.092;18.918;2023-08-21T01:42:15;12.85;;;10.70;;
82248;SDS011;71851;49.092;18.918;2023-08-21T01:45:16;11.63;;;10.43;;
82248;SDS011;71851;49.092;18.918;2023-08-21T01:48:16;11.05;;;9.95;;
82248;SDS011;71851;49.092;18.918;2023-08-21T01:51:17;12.82;;;10.93;;
82248;SDS011;71851;49.092;18.918;2023-08-21T01:54:18;12.45;;;11.10;;
82248;SDS011;71851;49.092;18.918;2023-08-21T01:57:19;11.43;;;10.05;;
82248;SDS011;71851;49.092;18.918;2023-08-21T02:00:19;12.88;;;11.52;;
82248;SDS011;71851;49.092;18.918;2023-08-21T02:03:20;12.80;;;11.05;;
82248;SDS011;71851;49.092;18.918;2023-08-21T02:06:21;13.38;;;12.07;;
82248;SDS011;71851;49.092;18.918;2023-08-21T02:09:21;14.05;;;12.02;;
82248;SDS011;71851;49.092;18.918;2023-08-21T02:12:22;12.48;;;10.60;;
82248;SDS011;71851;49.092;18.918;2023-08-21T02:15:23;13.73;;;11.32;;
82248;SDS011;71851;49.092;18.918;2023-08-21T02:18:23;11.25;;;10.15;;
82248;SDS011;71851;49.092;18.918;2023-08-21T02:21:24;17.67;;;12.95;;
82248;SDS011;71851;49.092;18.918;2023-08-21T02:24:24;13.30;;;11.88;;
82248;SDS011;71851;49.092;18.918;2023-08-21T02:27:25;12.93;;;11.60;;
82248;SDS011;71851;49.092;18.918;2023-08-21T02:30:26;12.63;;;11.23;;
82248;SDS011;71851;49.092;18.918;2023-08-21T02:33:28;13.95;;;10.50;;
82248;SDS011;71851;49.092;18.918;2023-08-21T02:39:33;13.70;;;12.13;;
82248;SDS011;71851;49.092;18.918;2023-08-21T02:42:34;14.35;;;11.98;;
82248;SDS011;71851;49.092;18.918;2023-08-21T02:45:34;12.07;;;10.48;;
82248;SDS011;71851;49.092;18.918;2023-08-21T02:48:35;14.80;;;11.82;;
82248;SDS011;71851;49.092;18.918;2023-08-21T02:51:35;12.60;;;11.02;;
82248;SDS011;71851;49.092;18.918;2023-08-21T02:54:36;12.57;;;11.27;;
82248;SDS011;71851;49.092;18.918;2023-08-21T02:57:36;14.27;;;11.15;;
82248;SDS011;71851;49.092;18.918;2023-08-21T03:00:37;15.13;;;11.88;;
82248;SDS011;71851;49.092;18.918;2023-08-21T03:03:38;12.40;;;11.07;;
82248;SDS011;71851;49.092;18.918;2023-08-21T03:06:38;11.90;;;10.60;;
82248;SDS011;71851;49.092;18.918;2023-08-21T03:09:39;14.82;;;11.88;;
82248;SDS011;71851;49.092;18.918;2023-08-21T03:12:40;13.23;;;10.80;;
82248;SDS011;71851;49.092;18.918;2023-08-21T03:15:40;12.07;;;10.82;;
82248;SDS011;71851;49.092;18.918;2023-08-21T03:18:57;11.88;;;10.63;;
82248;SDS011;71851;49.092;18.918;2023-08-21T03:22:00;11.75;;;10.27;;
82248;SDS011;71851;49.092;18.918;2023-08-21T03:25:01;16.02;;;10.20;;
82248;SDS011;71851;49.092;18.918;2023-08-21T03:28:02;12.05;;;10.02;;
82248;SDS011;71851;49.092;18.918;2023-08-21T03:31:03;11.98;;;9.38;;
82248;SDS011;71851;49.092;18.918;2023-08-21T03:34:04;14.88;;;10.55;;
82248;SDS011;71851;49.092;18.918;2023-08-21T03:37:05;13.23;;;10.73;;
82248;SDS011;71851;49.092;18.918;2023-08-21T03:40:07;11.77;;;10.55;;
82248;SDS011;71851;49.092;18.918;2023-08-21T03:43:08;11.15;;;10.02;;
82248;SDS011;71851;49.092;18.918;2023-08-21T03:46:09;12.93;;;10.15;;
82248;SDS011;71851;49.092;18.918;2023-08-21T03:49:09;14.55;;;11.02;;
82248;SDS011;71851;49.092;18.918;2023-08-21T03:52:10;11.98;;;10.35;;
82248;SDS011;71851;49.092;18.918;2023-08-21T03:55:10;11.27;;;9.70;;
82248;SDS011;71851;49.092;18.918;2023-08-21T03:58:11;12.98;;;10.50;;
82248;SDS011;71851;49.092;18.918;2023-08-21T04:01:12;14.60;;;10.40;;
82248;SDS011;71851;49.092;18.918;2023-08-21T04:04:13;13.23;;;11.15;;
82248;SDS011;71851;49.092;18.918;2023-08-21T04:07:13;13.25;;;10.23;;
82248;SDS011;71851;49.092;18.918;2023-08-21T04:10:14;12.95;;;10.75;;
82248;SDS011;71851;49.092;18.918;2023-08-21T04:13:14;13.55;;;9.57;;
82248;SDS011;71851;49.092;18.918;2023-08-21T04:16:15;12.45;;;11.15;;
82248;SDS011;71851;49.092;18.918;2023-08-21T04:19:17;15.00;;;10.85;;
82248;SDS011;71851;49.092;18.918;2023-08-21T04:22:18;13.48;;;11.38;;
82248;SDS011;71851;49.092;18.918;2023-08-21T04:25:18;12.65;;;10.65;;
82248;SDS011;71851;49.092;18.918;2023-08-21T04:28:19;16.27;;;10.52;;
82248;SDS011;71851;49.092;18.918;2023-08-21T04:31:20;12.13;;;10.93;;
82248;SDS011;71851;49.092;18.918;2023-08-21T04:34:22;11.05;;;9.90;;
82248;SDS011;71851;49.092;18.918;2023-08-21T04:40:25;13.70;;;10.65;;
82248;SDS011;71851;49.092;18.918;2023-08-21T04:43:26;13.98;;;11.63;;
82248;SDS011;71851;49.092;18.918;2023-08-21T04:46:28;13.68;;;11.98;;
82248;SDS011;71851;49.092;18.918;2023-08-21T04:49:29;13.90;;;11.40;;
82248;SDS011;71851;49.092;18.918;2023-08-21T04:52:30;13.43;;;12.02;;
82248;SDS011;71851;49.092;18.918;2023-08-21T04:55:33;16.00;;;11.57;;
82248;SDS011;71851;49.092;18.918;2023-08-21T04:58:34;13.40;;;11.50;;
82248;SDS011;71851;49.092;18.918;2023-08-21T05:01:34;16.30;;;11.75;;
82248;SDS011;71851;49.092;18.918;2023-08-21T05:04:36;14.10;;;11.52;;
82248;SDS011;71851;49.092;18.918;2023-08-21T05:07:38;14.60;;;11.90;;
82248;SDS011;71851;49.092;18.918;2023-08-21T05:10:39;13.77;;;11.13;;
82248;SDS011;71851;49.092;18.918;2023-08-21T05:13:39;13.85;;;11.30;;
82248;SDS011;71851;49.092;18.918;2023-08-21T05:16:43;14.55;;;11.95;;
82248;SDS011;71851;49.092;18.918;2023-08-21T05:19:44;15.70;;;12.00;;
82248;SDS011;71851;49.092;18.918;2023-08-21T05:22:46;16.08;;;12.43;;
82248;SDS011;71851;49.092;18.918;2023-08-21T05:25:48;14.65;;;12.77;;
82248;SDS011;71851;49.092;18.918;2023-08-21T05:28:55;17.30;;;13.75;;
82248;SDS011;71851;49.092;18.918;2023-08-21T05:31:56;15.68;;;12.43;;
82248;SDS011;71851;49.092;18.918;2023-08-21T05:34:56;17.33;;;13.43;;
82248;SDS011;71851;49.092;18.918;2023-08-21T05:37:57;17.80;;;13.60;;
82248;SDS011;71851;49.092;18.918;2023-08-21T05:40:58;14.85;;;12.80;;
82248;SDS011;71851;49.092;18.918;2023-08-21T05:43:59;16.27;;;13.68;;
82248;SDS011;71851;49.092;18.918;2023-08-21T05:50:01;15.00;;;12.77;;
82248;SDS011;71851;49.092;18.918;2023-08-21T05:53:09;16.98;;;11.88;;
82248;SDS011;71851;49.092;18.918;2023-08-21T05:56:10;13.45;;;12.07;;
82248;SDS011;71851;49.092;18.918;2023-08-21T05:59:10;12.70;;;11.40;;
82248;SDS011;71851;49.092;18.918;2023-08-21T06:02:12;14.32;;;12.77;;
82248;SDS011;71851;49.092;18.918;2023-08-21T06:05:14;14.15;;;12.35;;
82248;SDS011;71851;49.092;18.918;2023-08-21T06:08:15;15.10;;;13.65;;
82248;SDS011;71851;49.092;18.918;2023-08-21T06:11:15;13.88;;;12.52;;
82248;SDS011;71851;49.092;18.918;2023-08-21T06:14:16;13.57;;;12.18;;
82248;SDS011;71851;49.092;18.918;2023-08-21T06:17:20;14.65;;;13.23;;
82248;SDS011;71851;49.092;18.918;2023-08-21T06:20:20;13.95;;;12.65;;
82248;SDS011;71851;49.092;18.918;2023-08-21T06:23:21;13.48;;;12.23;;
82248;SDS011;71851;49.092;18.918;2023-08-21T06:26:21;12.98;;;11.77;;
82248;SDS011;71851;49.092;18.918;2023-08-21T06:29:22;13.18;;;11.82;;
82248;SDS011;71851;49.092;18.918;2023-08-21T06:32:23;13.75;;;12.52;;
82248;SDS011;71851;49.092;18.918;2023-08-21T06:35:23;13.82;;;12.52;;
82248;SDS011;71851;49.092;18.918;2023-08-21T06:38:24;13.95;;;12.55;;
82248;SDS011;71851;49.092;18.918;2023-08-21T06:44:25;13.15;;;11.98;;
82248;SDS011;71851;49.092;18.918;2023-08-21T06:50:27;14.32;;;13.02;;
82248;SDS011;71851;49.092;18.918;2023-08-21T06:53:27;13.25;;;12.00;;
82248;SDS011;71851;49.092;18.918;2023-08-21T06:56:28;12.00;;;10.90;;
82248;SDS011;71851;49.092;18.918;2023-08-21T06:59:29;12.82;;;11.63;;
82248;SDS011;71851;49.092;18.918;2023-08-21T07:02:29;13.52;;;12.32;;
82248;SDS011;71851;49.092;18.918;2023-08-21T07:05:30;12.23;;;11.13;;
82248;SDS011;71851;49.092;18.918;2023-08-21T07:08:30;12.80;;;11.70;;
82248;SDS011;71851;49.092;18.918;2023-08-21T07:11:31;13.70;;;12.40;;
82248;SDS011;71851;49.092;18.918;2023-08-21T07:14:31;12.60;;;11.48;;
82248;SDS011;71851;49.092;18.918;2023-08-21T07:17:32;11.70;;;10.73;;
82248;SDS011;71851;49.092;18.918;2023-08-21T07:20:32;12.05;;;11.05;;
82248;SDS011;71851;49.092;18.918;2023-08-21T07:23:33;12.38;;;10.82;;
82248;SDS011;71851;49.092;18.918;2023-08-21T07:26:34;12.45;;;11.25;;
82248;SDS011;71851;49.092;18.918;2023-08-21T07:29:34;11.57;;;10.68;;
82248;SDS011;71851;49.092;18.918;2023-08-21T07:32:35;12.07;;;11.23;;
82248;SDS011;71851;49.092;18.918;2023-08-21T07:35:35;10.75;;;9.82;;
82248;SDS011;71851;49.092;18.918;2023-08-21T07:38:36;11.45;;;10.65;;
82248;SDS011;71851;49.092;18.918;2023-08-21T07:41:36;12.77;;;11.65;;
82248;SDS011;71851;49.092;18.918;2023-08-21T07:44:38;12.63;;;11.68;;
82248;SDS011;71851;49.092;18.918;2023-08-21T07:47:39;12.38;;;11.48;;
82248;SDS011;71851;49.092;18.918;2023-08-21T07:50:40;12.48;;;11.48;;
82248;SDS011;71851;49.092;18.918;2023-08-21T07:53:40;12.93;;;11.82;;
82248;SDS011;71851;49.092;18.918;2023-08-21T07:56:41;12.63;;;11.48;;
82248;SDS011;71851;49.092;18.918;2023-08-21T07:59:42;13.25;;;12.13;;
82248;SDS011;71851;49.092;18.918;2023-08-21T08:02:42;11.57;;;10.65;;
82248;SDS011;71851;49.092;18.918;2023-08-21T08:05:43;12.63;;;11.52;;
82248;SDS011;71851;49.092;18.918;2023-08-21T08:08:43;12.55;;;11.52;;
82248;SDS011;71851;49.092;18.918;2023-08-21T08:11:46;12.63;;;11.55;;
82248;SDS011;71851;49.092;18.918;2023-08-21T08:14:47;25.88;;;23.83;;
82248;SDS011;71851;49.092;18.918;2023-08-21T08:17:47;13.73;;;12.27;;
82248;SDS011;71851;49.092;18.918;2023-08-21T08:20:52;12.00;;;10.90;;
82248;SDS011;71851;49.092;18.918;2023-08-21T08:23:53;13.25;;;12.05;;
82248;SDS011;71851;49.092;18.918;2023-08-21T08:26:53;12.13;;;11.02;;
82248;SDS011;71851;49.092;18.918;2023-08-21T08:29:53;13.32;;;12.23;;
82248;SDS011;71851;49.092;18.918;2023-08-21T08:32:54;12.30;;;11.40;;
82248;SDS011;71851;49.092;18.918;2023-08-21T08:35:54;12.38;;;11.48;;
82248;SDS011;71851;49.092;18.918;2023-08-21T08:38:55;13.32;;;11.15;;
82248;SDS011;71851;49.092;18.918;2023-08-21T08:42:01;11.40;;;10.32;;
82248;SDS011;71851;49.092;18.918;2023-08-21T08:45:03;11.05;;;10.25;;
82248;SDS011;71851;49.092;18.918;2023-08-21T08:48:04;12.10;;;11.10;;
82248;SDS011;71851;49.092;18.918;2023-08-21T08:51:05;12.60;;;11.57;;
82248;SDS011;71851;49.092;18.918;2023-08-21T08:54:06;12.80;;;11.70;;
82248;SDS011;71851;49.092;18.918;2023-08-21T08:57:07;11.00;;;10.10;;
82248;SDS011;71851;49.092;18.918;2023-08-21T09:00:08;11.93;;;10.93;;
82248;SDS011;71851;49.092;18.918;2023-08-21T09:03:09;11.07;;;10.27;;
82248;SDS011;71851;49.092;18.918;2023-08-21T09:06:10;11.77;;;10.88;;
82248;SDS011;71851;49.092;18.918;2023-08-21T09:09:10;11.32;;;10.32;;
82248;SDS011;71851;49.092;18.918;2023-08-21T09:12:19;11.13;;;10.43;;
82248;SDS011;71851;49.092;18.918;2023-08-21T09:15:20;12.07;;;11.18;;
82248;SDS011;71851;49.092;18.918;2023-08-21T09:18:23;11.48;;;10.48;;
82248;SDS011;71851;49.092;18.918;2023-08-21T09:21:25;12.00;;;11.20;;
82248;SDS011;71851;49.092;18.918;2023-08-21T09:24:28;13.30;;;12.15;;
82248;SDS011;71851;49.092;18.918;2023-08-21T09:27:28;10.77;;;9.88;;
82248;SDS011;71851;49.092;18.918;2023-08-21T09:30:30;12.48;;;11.45;;
82248;SDS011;71851;49.092;18.918;2023-08-21T09:33:44;11.70;;;10.52;;
82248;SDS011;71851;49.092;18.918;2023-08-21T09:36:56;11.82;;;11.02;;
82248;SDS011;71851;49.092;18.918;2023-08-21T09:40:00;11.07;;;10.32;;
82248;SDS011;71851;49.092;18.918;2023-08-21T09:43:01;11.23;;;10.43;;
82248;SDS011;71851;49.092;18.918;2023-08-21T09:46:03;12.35;;;11.30;;
82248;SDS011;71851;49.092;18.918;2023-08-21T09:49:05;12.80;;;11.80;;
82248;SDS011;71851;49.092;18.918;2023-08-21T09:52:07;10.20;;;9.50;;
82248;SDS011;71851;49.092;18.918;2023-08-21T09:55:10;10.38;;;9.68;;
82248;SDS011;71851;49.092;18.918;2023-08-21T09:58:13;11.15;;;10.30;;
82248;SDS011;71851;49.092;18.918;2023-08-21T10:01:13;10.75;;;9.95;;
82248;SDS011;71851;49.092;18.918;2023-08-21T10:04:16;9.75;;;8.95;;
82248;SDS011;71851;49.092;18.918;2023-08-21T10:07:19;9.98;;;9.15;;
82248;SDS011;71851;49.092;18.918;2023-08-21T10:10:22;10.38;;;9.63;;
82248;SDS011;71851;49.092;18.918;2023-08-21T10:13:22;10.27;;;9.57;;
82248;SDS011;71851;49.092;18.918;2023-08-21T10:16:23;10.32;;;9.52;;
82248;SDS011;71851;49.092;18.918;2023-08-21T10:19:24;11.05;;;10.25;;
82248;SDS011;71851;49.092;18.918;2023-08-21T10:22:47;10.88;;;10.15;;
82248;SDS011;71851;49.092;18.918;2023-08-21T10:25:49;10.65;;;9.73;;
82248;SDS011;71851;49.092;18.918;2023-08-21T10:28:56;9.30;;;8.52;;
82248;SDS011;71851;49.092;18.918;2023-08-21T10:32:02;9.57;;;8.77;;
82248;SDS011;71851;49.092;18.918;2023-08-21T10:35:04;9.52;;;8.57;;
82248;SDS011;71851;49.092;18.918;2023-08-21T10:38:18;8.68;;;7.97;;
82248;SDS011;71851;49.092;18.918;2023-08-21T10:41:18;8.73;;;8.13;;
82248;SDS011;71851;49.092;18.918;2023-08-21T10:47:56;8.93;;;8.32;;
82248;SDS011;71851;49.092;18.918;2023-08-21T10:51:01;8.73;;;8.00;;
82248;SDS011;71851;49.092;18.918;2023-08-21T10:54:10;8.88;;;8.02;;
82248;SDS011;71851;49.092;18.918;2023-08-21T10:57:11;8.45;;;7.68;;
82248;SDS011;71851;49.092;18.918;2023-08-21T11:00:12;9.00;;;8.27;;
82248;SDS011;71851;49.092;18.918;2023-08-21T11:03:15;7.45;;;6.82;;
82248;SDS011;71851;49.092;18.918;2023-08-21T11:06:18;8.38;;;7.78;;
82248;SDS011;71851;49.092;18.918;2023-08-21T11:09:19;7.70;;;6.97;;
82248;SDS011;71851;49.092;18.918;2023-08-21T11:12:21;7.85;;;7.18;;
82248;SDS011;71851;49.092;18.918;2023-08-21T11:15:24;7.68;;;7.07;;
82248;SDS011;71851;49.092;18.918;2023-08-21T11:18:33;7.60;;;6.97;;
82248;SDS011;71851;49.092;18.918;2023-08-21T11:21:40;6.50;;;6.00;;
82248;SDS011;71851;49.092;18.918;2023-08-21T11:24:48;9.32;;;5.82;;
82248;SDS011;71851;49.092;18.918;2023-08-21T11:27:49;6.28;;;5.78;;
82248;SDS011;71851;49.092;18.918;2023-08-21T11:30:49;6.38;;;5.88;;
82248;SDS011;71851;49.092;18.918;2023-08-21T11:33:50;7.18;;;6.47;;
82248;SDS011;71851;49.092;18.918;2023-08-21T11:36:50;6.90;;;6.20;;
82248;SDS011;71851;49.092;18.918;2023-08-21T11:39:54;5.38;;;4.93;;
82248;SDS011;71851;49.092;18.918;2023-08-21T11:43:03;5.22;;;4.70;;
82248;SDS011;71851;49.092;18.918;2023-08-21T11:46:08;4.95;;;3.78;;
82248;SDS011;71851;49.092;18.918;2023-08-21T11:49:10;4.35;;;3.90;;
82248;SDS011;71851;49.092;18.918;2023-08-21T11:52:11;4.80;;;4.40;;
82248;SDS011;71851;49.092;18.918;2023-08-21T11:55:12;5.53;;;4.10;;
82248;SDS011;71851;49.092;18.918;2023-08-21T11:58:12;5.30;;;4.32;;
82248;SDS011;71851;49.092;18.918;2023-08-21T12:01:18;6.63;;;6.00;;
82248;SDS011;71851;49.092;18.918;2023-08-21T12:04:20;5.25;;;4.40;;
82248;SDS011;71851;49.092;18.918;2023-08-21T12:07:20;4.15;;;3.75;;
82248;SDS011;71851;49.092;18.918;2023-08-21T12:10:24;5.32;;;4.47;;
82248;SDS011;71851;49.092;18.918;2023-08-21T12:13:25;4.95;;;3.72;;
82248;SDS011;71851;49.092;18.918;2023-08-21T12:16:26;4.88;;;3.92;;
82248;SDS011;71851;49.092;18.918;2023-08-21T12:19:27;5.18;;;4.68;;
82248;SDS011;71851;49.092;18.918;2023-08-21T12:22:27;4.78;;;4.38;;
82248;SDS011;71851;49.092;18.918;2023-08-21T12:25:28;5.00;;;4.30;;
82248;SDS011;71851;49.092;18.918;2023-08-21T12:28:28;5.60;;;5.10;;
82248;SDS011;71851;49.092;18.918;2023-08-21T12:31:29;7.57;;;3.90;;
82248;SDS011;71851;49.092;18.918;2023-08-21T12:34:30;4.35;;;3.83;;
82248;SDS011;71851;49.092;18.918;2023-08-21T12:37:30;4.13;;;3.83;;
82248;SDS011;71851;49.092;18.918;2023-08-21T12:40:31;4.40;;;4.00;;
82248;SDS011;71851;49.092;18.918;2023-08-21T12:43:32;4.22;;;3.83;;
82248;SDS011;71851;49.092;18.918;2023-08-21T12:46:33;5.35;;;4.95;;
82248;SDS011;71851;49.092;18.918;2023-08-21T12:49:33;5.15;;;4.60;;
82248;SDS011;71851;49.092;18.918;2023-08-21T12:52:35;5.32;;;4.78;;
82248;SDS011;71851;49.092;18.918;2023-08-21T12:55:35;5.18;;;4.68;;
82248;SDS011;71851;49.092;18.918;2023-08-21T12:58:36;5.13;;;4.53;;
82248;SDS011;71851;49.092;18.918;2023-08-21T13:01:36;4.50;;;4.10;;
82248;SDS011;71851;49.092;18.918;2023-08-21T13:04:37;5.45;;;4.85;;
82248;SDS011;71851;49.092;18.918;2023-08-21T13:07:38;5.00;;;4.50;;
82248;SDS011;71851;49.092;18.918;2023-08-21T13:10:38;7.35;;;5.10;;
82248;SDS011;71851;49.092;18.918;2023-08-21T13:13:39;6.45;;;5.55;;
82248;SDS011;71851;49.092;18.918;2023-08-21T13:16:41;6.20;;;5.70;;
82248;SDS011;71851;49.092;18.918;2023-08-21T13:19:42;7.05;;;6.45;;
82248;SDS011;71851;49.092;18.918;2023-08-21T13:22:46;7.55;;;6.72;;
82248;SDS011;71851;49.092;18.918;2023-08-21T13:25:49;6.25;;;5.65;;
82248;SDS011;71851;49.092;18.918;2023-08-21T13:28:49;9.15;;;6.13;;
82248;SDS011;71851;49.092;18.918;2023-08-21T13:31:50;7.22;;;6.45;;
82248;SDS011;71851;49.092;18.918;2023-08-21T13:34:50;6.40;;;5.90;;
82248;SDS011;71851;49.092;18.918;2023-08-21T13:37:51;6.57;;;5.60;;
82248;SDS011;71851;49.092;18.918;2023-08-21T13:40:52;8.30;;;5.50;;
82248;SDS011;71851;49.092;18.918;2023-08-21T13:43:52;9.75;;;5.57;;
82248;SDS011;71851;49.092;18.918;2023-08-21T13:46:53;6.93;;;5.35;;
82248;SDS011;71851;49.092;18.918;2023-08-21T13:49:53;8.45;;;6.85;;
82248;SDS011;71851;49.092;18.918;2023-08-21T13:52:54;9.18;;;6.57;;
82248;SDS011;71851;49.092;18.918;2023-08-21T13:55:54;10.90;;;5.60;;
82248;SDS011;71851;49.092;18.918;2023-08-21T13:58:55;10.88;;;6.30;;
82248;SDS011;71851;49.092;18.918;2023-08-21T14:01:57;7.97;;;5.85;;
82248;SDS011;71851;49.092;18.918;2023-08-21T14:04:58;11.10;;;6.57;;
82248;SDS011;71851;49.092;18.918;2023-08-21T14:07:59;8.20;;;7.25;;
82248;SDS011;71851;49.092;18.918;2023-08-21T14:11:00;10.20;;;6.40;;
82248;SDS011;71851;49.092;18.918;2023-08-21T14:14:00;8.35;;;5.70;;
82248;SDS011;71851;49.092;18.918;2023-08-21T14:17:01;9.20;;;6.13;;
82248;SDS011;71851;49.092;18.918;2023-08-21T14:20:04;9.32;;;7.18;;
82248;SDS011;71851;49.092;18.918;2023-08-21T14:23:05;6.50;;;5.50;;
82248;SDS011;71851;49.092;18.918;2023-08-21T14:29:05;8.23;;;6.57;;
82248;SDS011;71851;49.092;18.918;2023-08-21T14:32:06;10.23;;;7.97;;
82248;SDS011;71851;49.092;18.918;2023-08-21T14:38:08;8.80;;;7.03;;
82248;SDS011;71851;49.092;18.918;2023-08-21T14:41:09;11.00;;;7.75;;
82248;SDS011;71851;49.092;18.918;2023-08-21T14:47:10;10.70;;;7.10;;
82248;SDS011;71851;49.092;18.918;2023-08-21T14:53:11;9.18;;;7.57;;
82248;SDS011;71851;49.092;18.918;2023-08-21T14:59:12;9.95;;;7.50;;
82248;SDS011;71851;49.092;18.918;2023-08-21T15:02:14;11.05;;;7.30;;
82248;SDS011;71851;49.092;18.918;2023-08-21T15:08:17;10.05;;;7.32;;
82248;SDS011;71851;49.092;18.918;2023-08-21T15:14:17;9.27;;;7.05;;
82248;SDS011;71851;49.092;18.918;2023-08-21T15:20:18;11.43;;;8.13;;
82248;SDS011;71851;49.092;18.918;2023-08-21T15:23:21;9.55;;;7.15;;
82248;SDS011;71851;49.092;18.918;2023-08-21T15:26:24;7.05;;;6.40;;
82248;SDS011;71851;49.092;18.918;2023-08-21T15:32:25;7.60;;;6.90;;
82248;SDS011;71851;49.092;18.918;2023-08-21T15:35:26;11.45;;;7.18;;
82248;SDS011;71851;49.092;18.918;2023-08-21T15:38:27;8.80;;;6.72;;
82248;SDS011;71851;49.092;18.918;2023-08-21T15:44:28;10.65;;;8.50;;
82248;SDS011;71851;49.092;18.918;2023-08-21T15:47:28;11.07;;;8.93;;
82248;SDS011;71851;49.092;18.918;2023-08-21T15:50:28;9.90;;;9.00;;
82248;SDS011;71851;49.092;18.918;2023-08-21T15:53:29;10.55;;;7.43;;
82248;SDS011;71851;49.092;18.918;2023-08-21T15:56:29;13.77;;;8.25;;
82248;SDS011;71851;49.092;18.918;2023-08-21T16:02:30;12.10;;;8.10;;
82248;SDS011;71851;49.092;18.918;2023-08-21T16:05:30;11.60;;;6.72;;
82248;SDS011;71851;49.092;18.918;2023-08-21T16:08:33;10.70;;;7.45;;
82248;SDS011;71851;49.092;18.918;2023-08-21T16:11:33;9.23;;;7.57;;
82248;SDS011;71851;49.092;18.918;2023-08-21T16:14:34;8.93;;;8.02;;
82248;SDS011;71851;49.092;18.918;2023-08-21T16:17:34;11.38;;;7.93;;
82248;SDS011;71851;49.092;18.918;2023-08-21T16:20:37;10.10;;;8.20;;
82248;SDS011;71851;49.092;18.918;2023-08-21T16:23:37;11.68;;;7.88;;
82248;SDS011;71851;49.092;18.918;2023-08-21T16:26:38;11.95;;;8.35;;
82248;SDS011;71851;49.092;18.918;2023-08-21T16:29:38;10.38;;;8.02;;
82248;SDS011;71851;49.092;18.918;2023-08-21T16:32:39;10.07;;;7.82;;
82248;SDS011;71851;49.092;18.918;2023-08-21T16:35:41;9.70;;;8.75;;
82248;SDS011;71851;49.092;18.918;2023-08-21T16:38:41;8.77;;;7.88;;
82248;SDS011;71851;49.092;18.918;2023-08-21T16:41:43;10.02;;;8.35;;
82248;SDS011;71851;49.092;18.918;2023-08-21T16:44:44;9.43;;;8.52;;
82248;SDS011;71851;49.092;18.918;2023-08-21T16:47:51;10.32;;;8.00;;
82248;SDS011;71851;49.092;18.918;2023-08-21T16:50:52;8.88;;;7.97;;
82248;SDS011;71851;49.092;18.918;2023-08-21T16:53:52;9.57;;;7.32;;
82248;SDS011;71851;49.092;18.918;2023-08-21T16:56:54;14.50;;;12.55;;
82248;SDS011;71851;49.092;18.918;2023-08-21T16:59:54;10.65;;;9.38;;
82248;SDS011;71851;49.092;18.918;2023-08-21T17:02:55;16.80;;;9.88;;
82248;SDS011;71851;49.092;18.918;2023-08-21T17:05:55;11.48;;;9.60;;
82248;SDS011;71851;49.092;18.918;2023-08-21T17:08:56;9.82;;;8.80;;
82248;SDS011;71851;49.092;18.918;2023-08-21T17:11:56;9.88;;;8.88;;
82248;SDS011;71851;49.092;18.918;2023-08-21T17:14:57;9.95;;;7.38;;
82248;SDS011;71851;49.092;18.918;2023-08-21T17:17:57;9.40;;;7.40;;
82248;SDS011;71851;49.092;18.918;2023-08-21T17:20:58;7.60;;;6.80;;
82248;SDS011;71851;49.092;18.918;2023-08-21T17:23:58;9.88;;;7.95;;
82248;SDS011;71851;49.092;18.918;2023-08-21T17:26:58;10.50;;;8.07;;
82248;SDS011;71851;49.092;18.918;2023-08-21T17:30:00;9.85;;;8.10;;
82248;SDS011;71851;49.092;18.918;2023-08-21T17:33:03;11.32;;;10.23;;
82248;SDS011;71851;49.092;18.918;2023-08-21T17:36:04;11.18;;;9.50;;
82248;SDS011;71851;49.092;18.918;2023-08-21T17:39:05;13.52;;;9.82;;
82248;SDS011;71851;49.092;18.918;2023-08-21T17:42:05;10.80;;;9.23;;
82248;SDS011;71851;49.092;18.918;2023-08-21T17:45:07;12.93;;;9.20;;
82248;SDS011;71851;49.092;18.918;2023-08-21T17:48:08;13.60;;;9.57;;
82248;SDS011;71851;49.092;18.918;2023-08-21T17:51:08;12.68;;;9.15;;
82248;SDS011;71851;49.092;18.918;2023-08-21T17:54:09;11.65;;;8.27;;
82248;SDS011;71851;49.092;18.918;2023-08-21T17:57:10;12.20;;;9.52;;
82248;SDS011;71851;49.092;18.918;2023-08-21T18:00:11;9.73;;;8.13;;
82248;SDS011;71851;49.092;18.918;2023-08-21T18:03:12;8.77;;;7.95;;
82248;SDS011;71851;49.092;18.918;2023-08-21T18:06:14;11.27;;;8.75;;
82248;SDS011;71851;49.092;18.918;2023-08-21T18:09:15;8.57;;;7.47;;
82248;SDS011;71851;49.092;18.918;2023-08-21T18:12:17;13.50;;;9.13;;
82248;SDS011;71851;49.092;18.918;2023-08-21T18:15:17;9.85;;;8.85;;
82248;SDS011;71851;49.092;18.918;2023-08-21T18:18:18;9.70;;;8.68;;
82248;SDS011;71851;49.092;18.918;2023-08-21T18:21:19;10.68;;;8.25;;
82248;SDS011;71851;49.092;18.918;2023-08-21T18:24:20;9.88;;;8.85;;
82248;SDS011;71851;49.092;18.918;2023-08-21T18:27:21;11.63;;;8.80;;
82248;SDS011;71851;49.092;18.918;2023-08-21T18:30:21;12.70;;;9.05;;
82248;SDS011;71851;49.092;18.918;2023-08-21T18:33:22;13.95;;;8.60;;